Terminal Aerodrome Forecast
Issued by NWS

Home | Current Version | Previous Version | Graphics & Text | Print | Product List | Glossary On
Versions: 1 2 3 4 5 6 7 8 9 10 11 12 13 14 15 16 17 18
115
FTUS43 KBIS 182333
TAFDIK
TAF
KDIK 182333Z 1900/1924 15009KT P6SM SCT200
     FM190600 14012KT P6SM BKN200 WS020/16045KT
     FM191200 17010KT P6SM BKN150
     FM191400 22011KT P6SM OVC150
     FM191500 26012KT P6SM VCSH OVC100
     FM191800 28011KT P6SM -SHRA OVC080=

USA.gov is the U.S. government's official web portal to all federal, state and local government web resources and services.